createdAt,value
2019-01-03T00:00:00.170Z,44.40
2019-01-03T00:01:00.113Z,44.10
2019-01-03T00:02:00.102Z,36.90
2019-01-03T00:03:00.089Z,40.70
2019-01-03T00:04:00.079Z,39.90
2019-01-03T00:05:00.206Z,33.10
2019-01-03T00:06:00.079Z,30.50
2019-01-03T00:07:00.048Z,23.10
2019-01-03T00:08:00.035Z,27.40
2019-01-03T00:09:00.026Z,23.30
2019-01-03T00:10:00.035Z,22.50
2019-01-03T00:11:00.005Z,29.60
2019-01-03T00:11:59.992Z,27.00
2019-01-03T00:12:59.996Z,19.40
2019-01-03T00:13:59.967Z,21.50
2019-01-03T00:14:59.983Z,18.30
2019-01-03T00:15:59.950Z,19.90
2019-01-03T00:16:59.950Z,19.50
2019-01-03T00:17:59.932Z,20.10
2019-01-03T00:18:59.922Z,21.10
2019-01-03T00:19:59.925Z,22.00
2019-01-03T00:20:59.902Z,27.20
2019-01-03T00:21:59.921Z,30.10
2019-01-03T00:22:59.985Z,25.50
2019-01-03T00:23:59.871Z,29.00
2019-01-03T00:24:59.889Z,32.20
2019-01-03T00:25:59.841Z,32.50
2019-01-03T00:26:59.870Z,31.70
2019-01-03T00:27:59.824Z,33.90
2019-01-03T00:28:59.817Z,36.50
2019-01-03T00:29:59.806Z,36.00
2019-01-03T00:30:59.822Z,40.40
2019-01-03T00:31:59.780Z,30.30
2019-01-03T00:32:59.788Z,26.20
2019-01-03T00:33:59.809Z,27.10
2019-01-03T00:34:59.752Z,25.90
2019-01-03T00:35:59.760Z,29.50
2019-01-03T00:36:59.731Z,29.90
2019-01-03T00:37:59.721Z,32.00
2019-01-03T00:38:59.741Z,18.00
2019-01-03T00:39:59.764Z,26.50
2019-01-03T00:41:01.097Z,19.60
2019-01-03T00:41:59.720Z,18.60
2019-01-03T00:42:59.669Z,24.10
2019-01-03T00:43:59.662Z,20.90
2019-01-03T00:44:59.795Z,17.30
2019-01-03T00:45:59.707Z,18.00
2019-01-03T00:46:59.650Z,21.70
2019-01-03T00:47:59.615Z,21.00
2019-01-03T00:48:59.629Z,24.80
2019-01-03T00:49:59.610Z,20.70
2019-01-03T00:50:59.621Z,18.70
2019-01-03T00:51:59.610Z,18.90
2019-01-03T00:52:59.571Z,20.80
2019-01-03T00:53:59.562Z,28.00
2019-01-03T00:54:59.589Z,25.80
2019-01-03T00:55:59.568Z,22.00
2019-01-03T00:56:59.510Z,23.80
2019-01-03T00:57:59.507Z,19.20
2019-01-03T00:58:59.514Z,16.10
2019-01-03T00:59:59.484Z,14.00
2019-01-03T01:00:59.480Z,17.80
2019-01-03T01:01:59.485Z,16.30
2019-01-03T01:02:59.559Z,18.10
2019-01-03T01:03:59.464Z,21.80
2019-01-03T01:04:59.435Z,18.50
2019-01-03T01:05:59.433Z,22.70
2019-01-03T01:06:59.438Z,18.00
2019-01-03T01:07:59.403Z,17.80
2019-01-03T01:08:59.430Z,21.80
2019-01-03T01:09:59.379Z,16.60
2019-01-03T01:10:59.366Z,15.70
2019-01-03T01:11:59.374Z,26.10
2019-01-03T01:12:59.346Z,15.40
2019-01-03T01:13:59.335Z,19.00
2019-01-03T01:14:59.343Z,18.50
2019-01-03T01:15:59.313Z,16.00
2019-01-03T01:16:59.324Z,17.50
2019-01-03T01:17:59.291Z,24.80
2019-01-03T01:18:59.334Z,15.70
2019-01-03T01:19:59.275Z,18.80
2019-01-03T01:20:59.273Z,18.20
2019-01-03T01:21:59.254Z,23.60
2019-01-03T01:22:59.265Z,22.10
2019-01-03T01:23:59.239Z,16.80
2019-01-03T01:24:59.226Z,20.20
2019-01-03T01:25:59.272Z,22.90
2019-01-03T01:26:59.200Z,19.80
2019-01-03T01:27:59.209Z,19.30
2019-01-03T01:28:59.195Z,19.90
2019-01-03T01:29:59.173Z,23.00
2019-01-03T01:30:59.157Z,22.20
2019-01-03T01:31:59.165Z,21.70
2019-01-03T01:32:59.199Z,18.00
2019-01-03T01:33:59.131Z,18.20
2019-01-03T01:34:59.122Z,26.80
2019-01-03T01:35:59.108Z,24.10
2019-01-03T01:36:59.153Z,18.20
2019-01-03T01:37:59.117Z,20.50
2019-01-03T01:38:59.091Z,23.90
2019-01-03T01:39:59.067Z,22.60
2019-01-03T01:40:59.059Z,19.00
2019-01-03T01:41:59.044Z,20.60
2019-01-03T01:42:59.666Z,21.20
2019-01-03T01:43:59.020Z,17.00
2019-01-03T01:44:59.009Z,18.20
2019-01-03T01:45:59.000Z,18.30
2019-01-03T01:46:58.991Z,18.90
2019-01-03T01:47:59.004Z,15.40
2019-01-03T01:48:58.968Z,18.90
2019-01-03T01:49:59.043Z,18.80
2019-01-03T01:50:58.952Z,19.20
2019-01-03T01:51:58.952Z,20.60
2019-01-03T01:52:58.948Z,19.30
2019-01-03T01:53:59.610Z,17.90
2019-01-03T01:55:00.397Z,19.70
2019-01-03T01:55:59.694Z,19.40
2019-01-03T01:56:59.013Z,14.20
2019-01-03T01:59:02.012Z,23.30
2019-01-03T01:59:59.102Z,18.40
2019-01-03T02:00:59.903Z,20.90
2019-01-03T02:01:58.834Z,17.00
2019-01-03T02:02:58.821Z,19.20
2019-01-03T02:03:58.833Z,24.60
2019-01-03T02:04:58.797Z,19.70
2019-01-03T02:05:58.811Z,19.00
2019-01-03T02:06:58.777Z,18.10
2019-01-03T02:07:58.768Z,20.80
2019-01-03T02:08:58.756Z,21.00
2019-01-03T02:09:58.765Z,20.00
2019-01-03T02:10:58.732Z,18.10
2019-01-03T02:11:58.734Z,17.80
2019-01-03T02:12:58.974Z,17.40
2019-01-03T02:13:58.957Z,24.70
2019-01-03T02:14:58.988Z,21.70
2019-01-03T02:15:58.691Z,20.00
2019-01-03T02:16:58.666Z,23.90
2019-01-03T02:17:58.667Z,22.30
2019-01-03T02:18:58.648Z,17.70
2019-01-03T02:19:58.640Z,17.90
2019-01-03T02:20:58.916Z,21.60
2019-01-03T02:21:58.614Z,19.00
2019-01-03T02:22:58.600Z,12.80
2019-01-03T02:23:58.613Z,17.00
2019-01-03T02:24:58.588Z,19.60
2019-01-03T02:25:58.590Z,21.10
2019-01-03T02:26:58.574Z,20.80
2019-01-03T02:27:58.562Z,21.40
2019-01-03T02:29:01.256Z,25.10
2019-01-03T02:29:58.546Z,16.80
2019-01-03T02:30:58.557Z,15.30
2019-01-03T02:31:58.521Z,19.40
2019-01-03T02:32:58.542Z,18.10
2019-01-03T02:33:58.494Z,17.50
2019-01-03T02:34:58.474Z,20.80
2019-01-03T02:35:58.487Z,17.90
2019-01-03T02:36:58.465Z,16.60
2019-01-03T02:37:58.447Z,15.80
2019-01-03T02:38:58.441Z,17.10
2019-01-03T02:39:58.427Z,14.40
2019-01-03T02:40:58.439Z,14.70
2019-01-03T02:41:58.399Z,20.40
2019-01-03T02:42:58.406Z,18.10
2019-01-03T02:43:58.382Z,20.50
2019-01-03T02:44:58.376Z,17.40
2019-01-03T02:45:58.359Z,20.50
2019-01-03T02:46:58.367Z,17.10
2019-01-03T02:47:58.346Z,14.90
2019-01-03T02:48:58.328Z,22.40
2019-01-03T02:49:58.329Z,20.30
2019-01-03T02:50:58.360Z,14.20
2019-01-03T02:51:58.314Z,14.30
2019-01-03T02:52:58.315Z,18.00
2019-01-03T02:53:58.271Z,14.80
2019-01-03T02:54:58.264Z,14.00
2019-01-03T02:55:58.251Z,17.20
2019-01-03T02:56:58.283Z,18.60
2019-01-03T02:57:58.232Z,20.30
2019-01-03T02:58:58.222Z,16.90
2019-01-03T02:59:58.241Z,23.50
2019-01-03T03:00:58.211Z,17.40
2019-01-03T03:01:58.208Z,16.00
2019-01-03T03:02:58.178Z,20.10
2019-01-03T03:03:58.167Z,18.10
2019-01-03T03:04:58.240Z,17.50
2019-01-03T03:05:58.194Z,14.60
2019-01-03T03:06:58.183Z,19.30
2019-01-03T03:07:58.137Z,19.50
2019-01-03T03:08:58.152Z,18.50
2019-01-03T03:09:58.104Z,14.90
2019-01-03T03:10:58.095Z,23.40
2019-01-03T03:11:58.147Z,20.00
2019-01-03T03:12:58.071Z,16.20
2019-01-03T03:13:58.059Z,21.00
2019-01-03T03:14:58.050Z,19.60
2019-01-03T03:15:58.038Z,16.10
2019-01-03T03:16:58.047Z,17.40
2019-01-03T03:17:58.032Z,22.80
2019-01-03T03:18:58.056Z,18.30
2019-01-03T03:19:57.999Z,13.80
2019-01-03T03:20:57.987Z,17.40
2019-01-03T03:21:58.002Z,19.40
2019-01-03T03:22:57.995Z,19.30
2019-01-03T03:23:57.958Z,15.40
2019-01-03T03:24:57.941Z,19.90
2019-01-03T03:25:57.935Z,19.40
2019-01-03T03:26:57.938Z,18.50
2019-01-03T03:27:57.942Z,23.10
2019-01-03T03:28:57.911Z,25.90
2019-01-03T03:29:57.889Z,18.50
2019-01-03T03:30:57.877Z,17.30
2019-01-03T03:31:57.879Z,16.30
2019-01-03T03:32:57.860Z,16.60
2019-01-03T03:33:57.867Z,16.30
2019-01-03T03:34:57.837Z,18.80
2019-01-03T03:35:57.871Z,21.10
2019-01-03T03:36:57.852Z,17.90
2019-01-03T03:37:57.805Z,17.40
2019-01-03T03:38:57.815Z,20.70
2019-01-03T03:39:57.787Z,21.10
2019-01-03T03:40:57.778Z,17.20
2019-01-03T03:41:57.761Z,17.00
2019-01-03T03:42:57.751Z,19.50
2019-01-03T03:43:58.684Z,19.70
2019-01-03T03:44:57.740Z,15.40
2019-01-03T03:45:57.774Z,17.90
2019-01-03T03:46:57.710Z,19.60
2019-01-03T03:47:57.702Z,14.80
2019-01-03T03:48:57.690Z,19.00
2019-01-03T03:49:57.693Z,20.60
2019-01-03T03:50:57.669Z,20.70
2019-01-03T03:51:57.654Z,16.40
2019-01-03T03:52:57.644Z,20.90
2019-01-03T03:53:57.642Z,13.40
2019-01-03T03:54:57.668Z,23.20
2019-01-03T03:55:57.619Z,18.00
2019-01-03T03:56:57.607Z,15.90
2019-01-03T03:57:57.594Z,14.50
2019-01-03T03:58:57.590Z,17.90
2019-01-03T03:59:57.611Z,21.70
2019-01-03T04:00:57.557Z,15.80
2019-01-03T04:01:57.551Z,30.30
2019-01-03T04:02:57.539Z,19.00
2019-01-03T04:03:57.527Z,18.10
2019-01-03T04:04:57.539Z,20.40
2019-01-03T04:05:57.537Z,20.60
2019-01-03T04:06:57.493Z,18.80
2019-01-03T04:07:57.483Z,15.10
2019-01-03T04:08:57.492Z,21.50
2019-01-03T04:09:57.463Z,19.60
2019-01-03T04:10:57.470Z,16.90
2019-01-03T04:11:57.495Z,17.60
2019-01-03T04:12:57.429Z,16.00
2019-01-03T04:13:57.421Z,20.90
2019-01-03T04:14:57.428Z,18.40
2019-01-03T04:15:57.396Z,22.00
2019-01-03T04:16:57.389Z,14.20
2019-01-03T04:17:57.376Z,13.40
2019-01-03T04:18:57.384Z,22.50
2019-01-03T04:19:57.393Z,15.70
2019-01-03T04:20:57.343Z,16.40
2019-01-03T04:21:57.337Z,17.90
2019-01-03T04:22:57.326Z,14.90
2019-01-03T04:23:57.309Z,15.90
2019-01-03T04:24:57.299Z,18.80
2019-01-03T04:25:57.333Z,17.90
2019-01-03T04:26:57.288Z,18.50
2019-01-03T04:27:57.272Z,19.40
2019-01-03T04:28:57.267Z,14.60
2019-01-03T04:29:57.258Z,20.70
2019-01-03T04:30:57.273Z,18.00
2019-01-03T04:31:57.232Z,19.80
2019-01-03T04:32:57.216Z,23.80
2019-01-03T04:33:57.227Z,17.00
2019-01-03T04:34:57.220Z,22.40
2019-01-03T04:35:57.184Z,16.60
2019-01-03T04:36:57.196Z,19.10
2019-01-03T04:37:57.166Z,22.10
2019-01-03T04:38:57.151Z,15.60
2019-01-03T04:39:57.137Z,12.30
2019-01-03T04:40:57.141Z,11.60
2019-01-03T04:41:57.147Z,15.20
2019-01-03T04:42:57.128Z,14.40
2019-01-03T04:43:57.096Z,18.70
2019-01-03T04:44:57.088Z,13.50
2019-01-03T04:45:57.073Z,16.00
2019-01-03T04:46:57.068Z,21.10
2019-01-03T04:47:57.084Z,14.80
2019-01-03T04:48:57.046Z,17.80
2019-01-03T04:49:57.046Z,13.00
2019-01-03T04:50:57.027Z,18.30
2019-01-03T04:51:57.018Z,14.30
2019-01-03T04:52:57.001Z,15.10
2019-01-03T04:53:57.024Z,12.60
2019-01-03T04:54:56.985Z,13.20
2019-01-03T04:55:56.970Z,13.40
2019-01-03T04:56:56.955Z,16.10
2019-01-03T04:57:56.951Z,11.30
2019-01-03T04:58:56.971Z,20.50
2019-01-03T04:59:56.931Z,12.40
2019-01-03T05:00:56.922Z,10.60
2019-01-03T05:01:56.910Z,13.70
2019-01-03T05:02:56.890Z,16.70
2019-01-03T05:03:56.888Z,9.40
2019-01-03T05:04:57.710Z,12.60
2019-01-03T05:05:56.870Z,14.30
2019-01-03T05:06:56.876Z,15.00
2019-01-03T05:08:04.585Z,14.70
2019-01-03T05:08:56.877Z,15.50
2019-01-03T05:09:56.967Z,13.60
2019-01-03T05:11:04.547Z,14.50
2019-01-03T05:11:56.905Z,17.60
2019-01-03T05:13:05.297Z,20.40
2019-01-03T05:13:56.889Z,17.10
2019-01-03T05:14:56.873Z,18.10
2019-01-03T05:15:56.871Z,14.80
2019-01-03T05:16:57.136Z,17.40
2019-01-03T05:17:57.087Z,18.90
2019-01-03T05:18:56.954Z,17.90
2019-01-03T05:19:56.957Z,17.10
2019-01-03T05:20:57.401Z,25.70
2019-01-03T05:21:57.353Z,20.10
2019-01-03T05:22:57.089Z,30.90
2019-01-03T05:23:57.534Z,30.60
2019-01-03T05:24:57.082Z,29.80
2019-01-03T05:25:56.971Z,28.50
2019-01-03T05:26:56.894Z,27.20
2019-01-03T05:27:56.772Z,18.10
2019-01-03T05:28:56.798Z,20.00
2019-01-03T05:29:56.635Z,20.80
2019-01-03T05:30:56.621Z,18.80
2019-01-03T05:31:56.606Z,13.60
2019-01-03T05:32:56.640Z,19.30
2019-01-03T05:33:56.571Z,18.70
2019-01-03T05:34:56.571Z,16.60
2019-01-03T05:35:56.581Z,15.30
2019-01-03T05:36:56.541Z,16.70
2019-01-03T05:37:56.538Z,16.60
2019-01-03T05:38:56.545Z,16.50
2019-01-03T05:39:56.503Z,20.70
2019-01-03T05:40:56.493Z,18.20
2019-01-03T05:41:56.528Z,15.90
2019-01-03T05:42:56.486Z,15.50
2019-01-03T05:43:56.511Z,17.10
2019-01-03T05:44:56.454Z,14.60
2019-01-03T05:45:56.448Z,21.60
2019-01-03T05:46:56.433Z,14.40
2019-01-03T05:47:56.445Z,18.90
2019-01-03T05:48:56.432Z,14.20
2019-01-03T05:49:56.424Z,16.00
2019-01-03T05:50:56.391Z,17.20
2019-01-03T05:51:56.374Z,15.50
2019-01-03T05:52:56.387Z,17.70
2019-01-03T05:53:56.355Z,15.70
2019-01-03T05:54:56.345Z,16.90
2019-01-03T05:55:56.333Z,19.20
2019-01-03T05:56:56.324Z,17.60
2019-01-03T05:57:56.327Z,17.40
2019-01-03T05:58:56.317Z,21.30
2019-01-03T05:59:56.291Z,13.60
2019-01-03T06:00:56.274Z,17.70
2019-01-03T06:01:56.354Z,22.30
2019-01-03T06:02:56.263Z,18.90
2019-01-03T06:03:56.931Z,19.60
2019-01-03T06:04:56.270Z,23.30
2019-01-03T06:45:36.057Z,16.30
2019-01-03T06:46:33.675Z,15.50
2019-01-03T06:47:33.554Z,16.50
2019-01-03T06:48:33.527Z,14.70
2019-01-03T06:49:33.507Z,18.90
2019-01-03T06:50:33.456Z,15.10
2019-01-03T06:51:33.958Z,18.90
2019-01-03T06:52:33.701Z,18.80
2019-01-03T06:53:33.343Z,13.30
2019-01-03T06:54:33.447Z,19.40
2019-01-03T06:55:33.432Z,18.60
2019-01-03T06:56:33.343Z,13.60
2019-01-03T06:57:33.653Z,22.60
2019-01-03T06:58:33.345Z,18.80
2019-01-03T06:59:33.371Z,11.10
2019-01-03T07:00:33.289Z,20.20
2019-01-03T07:01:33.347Z,11.70
2019-01-03T07:02:33.291Z,13.50
2019-01-03T07:03:33.461Z,19.00
2019-01-03T07:04:33.236Z,18.10
2019-01-03T07:05:33.309Z,11.60
2019-01-03T07:06:33.319Z,21.90
2019-01-03T07:07:33.470Z,15.10
2019-01-03T07:08:33.261Z,19.30
2019-01-03T07:09:33.252Z,20.30
2019-01-03T07:10:33.214Z,19.30
2019-01-03T07:11:33.408Z,16.80
2019-01-03T07:12:33.290Z,8.00
2019-01-03T07:13:33.153Z,16.80
2019-01-03T07:14:33.094Z,16.50
2019-01-03T07:15:33.128Z,12.40
2019-01-03T07:16:33.080Z,17.50
2019-01-03T07:17:33.156Z,13.60
2019-01-03T07:18:33.267Z,18.10
2019-01-03T07:19:33.197Z,16.40
2019-01-03T07:20:33.157Z,17.70
2019-01-03T07:21:32.970Z,15.00
2019-01-03T07:22:32.959Z,20.20
2019-01-03T07:23:32.949Z,12.90
2019-01-03T07:24:33.057Z,15.10
2019-01-03T07:25:32.930Z,16.90
2019-01-03T07:26:32.919Z,13.40
2019-01-03T07:27:32.913Z,19.40
2019-01-03T07:28:32.902Z,15.60
2019-01-03T07:29:32.913Z,13.40
2019-01-03T07:30:32.877Z,17.10
2019-01-03T07:31:32.863Z,16.20
2019-01-03T07:32:32.855Z,15.40
2019-01-03T07:33:32.847Z,16.70
2019-01-03T07:34:32.856Z,17.70
2019-01-03T07:35:32.855Z,18.90
2019-01-03T07:36:32.818Z,15.10
2019-01-03T07:37:32.804Z,12.20
2019-01-03T07:38:32.811Z,13.70
2019-01-03T07:39:32.778Z,20.40
2019-01-03T07:40:32.766Z,13.00
2019-01-03T07:41:32.782Z,11.90
2019-01-03T07:42:32.751Z,21.80
2019-01-03T07:43:32.754Z,22.80
2019-01-03T07:44:32.730Z,24.30
2019-01-03T07:45:32.740Z,18.60
2019-01-03T07:46:32.747Z,20.50
2019-01-03T07:47:32.739Z,16.40
2019-01-03T07:48:32.683Z,18.40
2019-01-03T07:49:32.678Z,17.70
2019-01-03T07:50:32.663Z,18.60
2019-01-03T07:51:32.654Z,17.00
2019-01-03T07:52:32.716Z,12.60
2019-01-03T07:53:32.634Z,21.80
2019-01-03T07:54:32.625Z,17.80
2019-01-03T07:55:32.611Z,13.20
2019-01-03T07:56:32.605Z,18.30
2019-01-03T07:57:32.615Z,16.50
2019-01-03T07:58:32.578Z,15.80
2019-01-03T07:59:32.572Z,22.10
2019-01-03T08:00:32.560Z,16.80
2019-01-03T08:01:32.543Z,22.20
2019-01-03T08:02:32.589Z,16.60
2019-01-03T08:03:32.521Z,18.70
2019-01-03T08:04:32.515Z,15.30
2019-01-03T08:05:32.507Z,14.20
2019-01-03T08:06:32.497Z,19.10
2019-01-03T08:07:32.529Z,16.40
2019-01-03T08:08:32.464Z,17.80
2019-01-03T08:09:32.465Z,19.00
2019-01-03T08:10:32.460Z,21.20
2019-01-03T08:11:32.439Z,20.70
2019-01-03T08:12:32.425Z,17.40
2019-01-03T08:13:32.438Z,15.00
2019-01-03T08:14:32.407Z,15.60
2019-01-03T08:15:32.405Z,20.50
2019-01-03T08:16:32.384Z,17.50
2019-01-03T08:17:32.419Z,18.40
2019-01-03T08:18:32.384Z,17.80
2019-01-03T08:19:32.374Z,19.60
2019-01-03T08:20:32.332Z,18.70
2019-01-03T08:21:32.338Z,16.90
2019-01-03T08:22:32.324Z,23.80
2019-01-03T08:23:32.303Z,18.50
2019-01-03T08:24:32.331Z,18.60
2019-01-03T08:25:32.290Z,17.00
2019-01-03T08:26:32.279Z,15.20
2019-01-03T08:27:32.270Z,19.70
2019-01-03T08:28:32.258Z,21.70
2019-01-03T08:29:32.262Z,16.50
2019-01-03T08:30:32.224Z,19.00
2019-01-03T08:31:32.230Z,12.60
2019-01-03T08:32:32.209Z,12.30
2019-01-03T08:33:32.196Z,14.50
2019-01-03T08:34:32.181Z,16.10
2019-01-03T08:35:32.209Z,15.20
2019-01-03T08:36:32.161Z,17.40
2019-01-03T08:37:32.174Z,20.90
2019-01-03T08:38:32.136Z,20.40
2019-01-03T08:39:32.130Z,14.50
2019-01-03T08:40:32.137Z,15.50
2019-01-03T08:41:32.108Z,14.20
2019-01-03T08:42:32.133Z,9.40
2019-01-03T08:43:32.092Z,12.70
2019-01-03T08:44:32.081Z,11.50
2019-01-03T08:45:32.087Z,9.90
2019-01-03T08:46:32.070Z,10.20
2019-01-03T08:47:32.041Z,11.50
2019-01-03T08:48:32.033Z,11.10
2019-01-03T08:49:32.033Z,12.70
2019-01-03T08:50:32.012Z,16.00
2019-01-03T08:51:32.020Z,10.90
2019-01-03T08:52:32.010Z,10.50
2019-01-03T08:53:31.981Z,13.00
2019-01-03T08:54:31.977Z,15.40
2019-01-03T08:55:31.961Z,11.90
2019-01-03T08:56:31.975Z,14.10
2019-01-03T08:57:31.936Z,13.20
2019-01-03T08:58:31.931Z,13.00
2019-01-03T08:59:31.911Z,14.80
2019-01-03T09:00:31.906Z,11.60
2019-01-03T09:01:31.916Z,12.70
2019-01-03T09:02:31.883Z,14.00
2019-01-03T09:03:31.880Z,17.20
2019-01-03T09:04:31.856Z,13.40
2019-01-03T09:05:31.849Z,12.60
2019-01-03T09:06:31.877Z,11.70
2019-01-03T09:07:31.831Z,12.90
2019-01-03T09:08:31.815Z,9.40
2019-01-03T09:09:31.815Z,14.70
2019-01-03T09:10:31.795Z,15.40
2019-01-03T09:11:31.799Z,13.90
2019-01-03T09:12:31.792Z,13.90
2019-01-03T09:13:31.762Z,9.70
2019-01-03T09:14:31.755Z,13.40
2019-01-03T09:15:31.766Z,13.80
2019-01-03T09:16:31.731Z,14.40
2019-01-03T09:17:31.735Z,16.30
2019-01-03T09:18:31.707Z,16.10
2019-01-03T09:19:31.715Z,14.50
2019-01-03T09:20:31.694Z,13.10
2019-01-03T09:21:31.672Z,21.90
2019-01-03T09:22:31.708Z,18.30
2019-01-03T09:23:31.652Z,14.80
2019-01-03T09:24:31.640Z,15.80
2019-01-03T09:25:31.633Z,18.60
2019-01-03T09:26:31.624Z,15.20
2019-01-03T09:27:31.604Z,13.30
2019-01-03T09:28:31.620Z,11.80
2019-01-03T09:29:31.600Z,15.20
2019-01-03T09:30:31.577Z,13.40
2019-01-03T09:31:31.564Z,13.30
2019-01-03T09:32:31.556Z,12.30
2019-01-03T09:33:31.567Z,14.40
2019-01-03T09:34:31.534Z,13.40
2019-01-03T09:35:31.521Z,11.40
2019-01-03T09:36:31.507Z,15.00
2019-01-03T09:37:31.501Z,16.10
2019-01-03T09:38:31.512Z,14.80
2019-01-03T09:39:31.493Z,14.70
2019-01-03T09:40:31.465Z,13.10
2019-01-03T09:41:31.454Z,16.30
2019-01-03T09:42:31.441Z,9.70
2019-01-03T09:43:31.467Z,17.80
2019-01-03T09:44:31.424Z,16.80
2019-01-03T09:45:38.231Z,14.50
2019-01-03T09:46:32.403Z,17.40
2019-01-03T09:47:31.397Z,14.50
2019-01-03T09:48:31.382Z,12.20
2019-01-03T09:49:31.391Z,15.00
2019-01-03T09:50:31.364Z,16.10
2019-01-03T09:51:31.346Z,12.10
2019-01-03T09:52:31.336Z,13.50
2019-01-03T09:53:38.978Z,13.90
2019-01-03T09:54:31.412Z,16.20
2019-01-03T09:55:31.408Z,16.50
2019-01-03T09:56:31.319Z,10.00
2019-01-03T09:57:31.283Z,12.80
2019-01-03T09:58:31.271Z,17.10
2019-01-03T09:59:31.314Z,11.70
2019-01-03T10:00:31.248Z,14.10
2019-01-03T10:01:31.240Z,15.00
2019-01-03T10:02:31.263Z,11.90
2019-01-03T10:03:31.212Z,16.10
2019-01-03T10:04:31.200Z,16.70
2019-01-03T10:05:31.216Z,12.80
2019-01-03T10:06:31.182Z,14.50
2019-01-03T10:07:31.174Z,14.20
2019-01-03T10:08:31.973Z,18.50
2019-01-03T10:09:31.162Z,17.60
2019-01-03T10:10:31.208Z,16.30
2019-01-03T10:11:31.130Z,15.60
2019-01-03T10:12:31.133Z,13.90
2019-01-03T10:13:31.139Z,13.60
2019-01-03T10:14:31.106Z,11.90
2019-01-03T10:15:31.089Z,16.50
2019-01-03T10:16:31.121Z,14.40
2019-01-03T10:17:31.071Z,10.50
2019-01-03T10:18:31.064Z,11.40
2019-01-03T10:19:31.052Z,11.40
2019-01-03T10:20:31.037Z,10.70
2019-01-03T10:21:31.024Z,12.80
2019-01-03T10:22:31.039Z,11.00
2019-01-03T10:23:31.012Z,10.40
2019-01-03T10:24:30.996Z,9.60
2019-01-03T10:25:31.193Z,11.80
2019-01-03T10:26:31.390Z,10.50
2019-01-03T10:27:31.091Z,10.50
2019-01-03T10:28:31.013Z,11.50
2019-01-03T10:29:30.945Z,8.70
2019-01-03T10:30:30.929Z,17.70
2019-01-03T10:31:30.967Z,13.20
2019-01-03T10:32:30.936Z,14.50
2019-01-03T10:33:30.918Z,11.90
2019-01-03T10:34:30.893Z,10.10
2019-01-03T10:35:30.880Z,13.90
2019-01-03T10:36:32.917Z,8.70
2019-01-03T10:37:30.878Z,14.50
2019-01-03T10:38:30.843Z,13.70
2019-01-03T10:39:30.858Z,8.40
2019-01-03T10:40:30.823Z,8.80
2019-01-03T10:41:31.073Z,8.70
2019-01-03T10:42:30.850Z,8.70
2019-01-03T10:43:30.794Z,12.30
2019-01-03T10:44:30.789Z,9.40
2019-01-03T10:45:30.788Z,8.40
2019-01-03T10:46:30.763Z,8.10
2019-01-03T10:47:30.751Z,9.80
2019-01-03T10:48:30.773Z,8.80
2019-01-03T10:49:31.020Z,14.70
2019-01-03T10:50:32.092Z,12.20
2019-01-03T10:51:30.920Z,7.60
2019-01-03T10:52:30.700Z,12.00
2019-01-03T10:53:30.688Z,6.70
2019-01-03T10:54:30.980Z,9.80
2019-01-03T10:55:30.659Z,9.50
2019-01-03T10:56:30.656Z,14.50
2019-01-03T10:57:31.441Z,12.70
2019-01-03T10:58:31.419Z,13.80
2019-01-03T10:59:32.598Z,10.60
2019-01-03T11:00:31.038Z,12.60
2019-01-03T11:01:30.672Z,8.20
2019-01-03T11:02:30.865Z,8.30
2019-01-03T11:03:30.692Z,9.60
2019-01-03T11:04:31.028Z,12.10
2019-01-03T11:05:30.733Z,11.60
2019-01-03T11:06:30.796Z,9.70
2019-01-03T11:07:30.726Z,12.80
2019-01-03T11:08:30.766Z,10.00
2019-01-03T11:09:31.025Z,12.70
2019-01-03T11:10:30.758Z,9.60
2019-01-03T11:11:30.704Z,12.10
2019-01-03T11:12:30.817Z,10.40
2019-01-03T11:13:30.622Z,11.70
2019-01-03T11:14:30.700Z,11.70
2019-01-03T11:15:30.952Z,12.20
2019-01-03T11:16:30.562Z,9.00
2019-01-03T11:17:30.853Z,11.80
2019-01-03T11:18:30.777Z,10.40
2019-01-03T11:19:30.659Z,12.40
2019-01-03T11:20:30.887Z,10.90
2019-01-03T11:21:30.851Z,13.50
2019-01-03T11:22:31.211Z,11.10
2019-01-03T11:23:30.620Z,9.40
2019-01-03T11:24:31.883Z,11.00
2019-01-03T11:25:30.598Z,9.60
2019-01-03T11:26:30.553Z,15.00
2019-01-03T11:27:30.598Z,13.70
2019-01-03T11:28:30.659Z,12.60
2019-01-03T11:29:31.370Z,10.80
2019-01-03T11:30:31.666Z,11.10
2019-01-03T11:31:30.585Z,12.50
2019-01-03T11:32:30.718Z,10.70
2019-01-03T11:33:31.350Z,11.50
2019-01-03T11:34:30.311Z,9.10
2019-01-03T11:35:30.237Z,10.40
2019-01-03T11:36:30.316Z,13.10
2019-01-03T11:37:30.265Z,11.20
2019-01-03T11:38:31.299Z,9.40
2019-01-03T11:39:30.241Z,11.30
2019-01-03T11:40:30.219Z,11.10
2019-01-03T11:41:32.929Z,12.20
2019-01-03T11:42:30.373Z,11.10
2019-01-03T11:43:30.328Z,11.30
2019-01-03T11:44:30.229Z,8.60
2019-01-03T11:45:30.293Z,8.50
2019-01-03T11:46:30.196Z,10.80
2019-01-03T11:47:30.188Z,12.70
2019-01-03T11:48:30.439Z,13.70
2019-01-03T11:49:30.223Z,11.00
2019-01-03T11:50:30.931Z,11.10
2019-01-03T11:51:30.086Z,8.70
2019-01-03T11:52:30.161Z,12.90
2019-01-03T11:53:30.046Z,17.60
2019-01-03T11:54:30.205Z,8.30
2019-01-03T11:55:30.533Z,12.40
2019-01-03T11:56:34.970Z,10.90
2019-01-03T11:57:35.102Z,7.40
2019-01-03T11:58:31.248Z,8.90
2019-01-03T11:59:30.517Z,11.50
2019-01-03T12:00:29.978Z,10.30
2019-01-03T12:01:29.971Z,8.20
2019-01-03T12:02:29.950Z,11.40
2019-01-03T12:03:29.980Z,8.80
2019-01-03T12:04:29.958Z,12.30
2019-01-03T12:05:29.920Z,10.20
2019-01-03T12:06:30.033Z,14.20
2019-01-03T12:07:31.029Z,5.80
2019-01-03T12:08:30.164Z,9.90
2019-01-03T12:09:29.905Z,7.50
2019-01-03T12:10:29.864Z,9.00
2019-01-03T12:11:29.893Z,14.80
2019-01-03T12:12:29.862Z,8.50
2019-01-03T12:13:29.837Z,9.80
2019-01-03T12:14:29.915Z,10.60
2019-01-03T12:15:29.817Z,9.20
2019-01-03T12:16:29.809Z,10.60
2019-01-03T12:17:30.348Z,9.40
2019-01-03T12:18:29.783Z,9.30
2019-01-03T12:19:29.770Z,10.10
2019-01-03T12:20:29.793Z,7.70
2019-01-03T12:21:29.751Z,9.30
2019-01-03T12:22:29.749Z,11.10
2019-01-03T12:23:29.732Z,7.30
2019-01-03T12:24:30.769Z,7.80
2019-01-03T12:25:29.753Z,10.00
2019-01-03T12:26:29.703Z,7.20
2019-01-03T12:27:29.694Z,7.70
2019-01-03T12:28:29.884Z,11.60
2019-01-03T12:29:29.666Z,5.80
2019-01-03T12:30:29.660Z,7.40
2019-01-03T12:31:29.674Z,10.80
2019-01-03T12:32:29.639Z,4.50
2019-01-03T12:33:29.626Z,9.10
2019-01-03T12:34:29.639Z,9.60
2019-01-03T12:35:29.612Z,9.80
2019-01-03T12:36:29.612Z,6.80
2019-01-03T12:37:29.580Z,7.00
2019-01-03T12:38:29.571Z,12.90
2019-01-03T12:39:29.565Z,8.50
2019-01-03T12:40:29.554Z,8.70
2019-01-03T12:41:29.585Z,5.70
2019-01-03T12:42:29.535Z,6.80
2019-01-03T12:43:29.520Z,8.50
2019-01-03T12:44:29.518Z,6.20
2019-01-03T12:45:29.497Z,9.40
2019-01-03T12:46:29.485Z,7.50
2019-01-03T12:47:29.508Z,10.80
2019-01-03T12:48:29.471Z,7.90
2019-01-03T12:49:29.458Z,8.50
2019-01-03T12:50:29.496Z,9.60
2019-01-03T12:51:29.438Z,12.00
2019-01-03T12:52:29.456Z,3.90
2019-01-03T12:53:29.419Z,5.90
2019-01-03T12:54:29.431Z,10.20
2019-01-03T12:55:29.394Z,10.00
2019-01-03T12:56:29.495Z,8.40
2019-01-03T12:57:29.374Z,8.50
2019-01-03T12:58:29.382Z,7.00
2019-01-03T12:59:29.369Z,6.30
2019-01-03T13:00:29.342Z,6.30
2019-01-03T13:01:29.347Z,7.90
2019-01-03T13:02:29.318Z,7.50
2019-01-03T13:03:29.329Z,6.30
2019-01-03T13:04:29.344Z,4.70
2019-01-03T13:05:29.294Z,9.00
2019-01-03T13:06:29.276Z,8.00
2019-01-03T13:07:29.277Z,8.50
2019-01-03T13:08:29.289Z,8.20
2019-01-03T13:09:29.289Z,12.50
2019-01-03T13:10:29.238Z,8.70
2019-01-03T13:11:29.226Z,9.00
2019-01-03T13:12:29.520Z,5.80
2019-01-03T13:13:29.524Z,11.60
2019-01-03T13:14:29.509Z,7.90
2019-01-03T13:15:29.370Z,5.70
2019-01-03T13:16:29.267Z,10.10
2019-01-03T13:17:29.506Z,5.60
2019-01-03T13:18:29.290Z,11.10
2019-01-03T13:19:29.537Z,7.60
2019-01-03T13:20:29.229Z,6.60
2019-01-03T13:21:29.193Z,7.00
2019-01-03T13:22:29.278Z,5.90
2019-01-03T13:23:29.099Z,6.30
2019-01-03T13:24:29.091Z,6.70
2019-01-03T13:25:29.145Z,10.70
2019-01-03T13:26:29.072Z,9.40
2019-01-03T13:27:29.074Z,11.80
2019-01-03T13:28:29.044Z,8.40
2019-01-03T13:29:29.035Z,6.30
2019-01-03T13:30:29.026Z,11.30
2019-01-03T13:31:29.059Z,8.40
2019-01-03T13:32:29.004Z,5.00
2019-01-03T13:33:28.999Z,8.40
2019-01-03T13:34:28.984Z,8.70
2019-01-03T13:35:28.999Z,6.00
2019-01-03T13:36:28.965Z,6.70